sensor_id;sensor_type;location;lat;lon;timestamp;pressure;altitude;pressure_sealevel;temperature;humidity
78123;BME280;67376;44.802;10.332;2024-03-23T00:55:41;100956.56;;;21.77;44.44
78123;BME280;67376;44.802;10.332;2024-03-23T00:58:06;100955.72;;;21.77;44.49
78123;BME280;67376;44.802;10.332;2024-03-23T01:00:32;100961.16;;;21.77;44.49
78123;BME280;67376;44.802;10.332;2024-03-23T01:02:57;100951.13;;;21.77;44.20
78123;BME280;67376;44.802;10.332;2024-03-23T01:05:22;100953.84;;;21.77;44.37
78123;BME280;67376;44.802;10.332;2024-03-23T01:07:48;100944.03;;;21.76;44.66
78123;BME280;67376;44.802;10.332;2024-03-23T01:10:13;100942.13;;;21.77;44.73
78123;BME280;67376;44.802;10.332;2024-03-23T01:12:39;100941.31;;;21.76;44.42
78123;BME280;67376;44.802;10.332;2024-03-23T01:15:04;100946.75;;;21.76;44.43
78123;BME280;67376;44.802;10.332;2024-03-23T01:17:30;100941.31;;;21.76;44.37
78123;BME280;67376;44.802;10.332;2024-03-23T01:19:55;100933.16;;;21.76;44.66
78123;BME280;67376;44.802;10.332;2024-03-23T01:22:21;100935.06;;;21.75;44.69
78123;BME280;67376;44.802;10.332;2024-03-23T01:24:46;100933.41;;;21.74;44.82
78123;BME280;67376;44.802;10.332;2024-03-23T01:27:11;100926.91;;;21.75;44.74
78123;BME280;67376;44.802;10.332;2024-03-23T01:29:37;100924.19;;;21.75;44.85
78123;BME280;67376;44.802;10.332;2024-03-23T01:32:02;100917.91;;;21.75;44.53
78123;BME280;67376;44.802;10.332;2024-03-23T01:34:28;100914.38;;;21.74;44.44
78123;BME280;67376;44.802;10.332;2024-03-23T01:36:53;100923.34;;;21.75;44.59
78123;BME280;67376;44.802;10.332;2024-03-23T01:39:18;100917.91;;;21.75;44.54
78123;BME280;67376;44.802;10.332;2024-03-23T01:41:44;100919.81;;;21.74;44.55
78123;BME280;67376;44.802;10.332;2024-03-23T01:44:10;100915.44;;;21.73;44.69
78123;BME280;67376;44.802;10.332;2024-03-23T01:46:37;100918.75;;;21.75;44.50
78123;BME280;67376;44.802;10.332;2024-03-23T01:49:04;100916.25;;;21.74;44.70
78123;BME280;67376;44.802;10.332;2024-03-23T01:51:30;100911.91;;;21.73;45.01
78123;BME280;67376;44.802;10.332;2024-03-23T01:53:56;100921.69;;;21.74;44.61
78123;BME280;67376;44.802;10.332;2024-03-23T01:56:21;100918.16;;;21.73;44.71
78123;BME280;67376;44.802;10.332;2024-03-23T01:58:47;100920.06;;;21.73;44.96
78123;BME280;67376;44.802;10.332;2024-03-23T02:01:12;100920.06;;;21.73;44.54
78123;BME280;67376;44.802;10.332;2024-03-23T02:03:37;100918.41;;;21.72;44.65
78123;BME280;67376;44.802;10.332;2024-03-23T02:06:03;100919.22;;;21.72;44.94
78123;BME280;67376;44.802;10.332;2024-03-23T02:08:29;100920.06;;;21.73;44.91
78123;BME280;67376;44.802;10.332;2024-03-23T02:10:56;100924.66;;;21.72;44.79
78123;BME280;67376;44.802;10.332;2024-03-23T02:13:21;100915.69;;;21.72;44.63
78123;BME280;67376;44.802;10.332;2024-03-23T02:15:47;100910.25;;;21.72;44.72
78123;BME280;67376;44.802;10.332;2024-03-23T02:18:13;100907.53;;;21.72;44.85
78123;BME280;67376;44.802;10.332;2024-03-23T02:20:39;100901.25;;;21.71;44.63
78123;BME280;67376;44.802;10.332;2024-03-23T02:23:05;100895.84;;;21.71;44.96
78123;BME280;67376;44.802;10.332;2024-03-23T02:25:33;100905.88;;;21.71;44.59
78123;BME280;67376;44.802;10.332;2024-03-23T02:27:59;100897.72;;;21.71;44.70
78123;BME280;67376;44.802;10.332;2024-03-23T02:30:25;100906.69;;;21.71;44.80
78123;BME280;67376;44.802;10.332;2024-03-23T02:32:51;100898.56;;;21.71;44.78
78123;BME280;67376;44.802;10.332;2024-03-23T02:35:16;100894.19;;;21.70;44.87
78123;BME280;67376;44.802;10.332;2024-03-23T02:37:42;100899.63;;;21.70;45.07
78123;BME280;67376;44.802;10.332;2024-03-23T02:40:07;100897.72;;;21.71;44.88
78123;BME280;67376;44.802;10.332;2024-03-23T02:42:33;100887.91;;;21.70;44.79
78123;BME280;67376;44.802;10.332;2024-03-23T02:44:58;100890.63;;;21.70;44.83
78123;BME280;67376;44.802;10.332;2024-03-23T02:47:24;100878.13;;;21.69;45.24
78123;BME280;67376;44.802;10.332;2024-03-23T02:49:49;100869.13;;;21.68;45.22
78123;BME280;67376;44.802;10.332;2024-03-23T02:52:15;100869.97;;;21.69;44.70
78123;BME280;67376;44.802;10.332;2024-03-23T02:54:40;100868.06;;;21.69;45.21
78123;BME280;67376;44.802;10.332;2024-03-23T02:57:10;100861.00;;;21.68;45.14
78123;BME280;67376;44.802;10.332;2024-03-23T02:59:35;100863.69;;;21.68;45.18
78123;BME280;67376;44.802;10.332;2024-03-23T03:02:00;100858.28;;;21.68;44.98
78123;BME280;67376;44.802;10.332;2024-03-23T03:04:26;100843.84;;;21.68;45.15
78123;BME280;67376;44.802;10.332;2024-03-23T03:06:52;100844.91;;;21.67;44.99
78123;BME280;67376;44.802;10.332;2024-03-23T03:09:17;100843.03;;;21.67;44.79
78123;BME280;67376;44.802;10.332;2024-03-23T03:11:42;100843.84;;;21.68;44.92
78123;BME280;67376;44.802;10.332;2024-03-23T03:14:08;100851.19;;;21.67;45.21
78123;BME280;67376;44.802;10.332;2024-03-23T03:16:33;100839.72;;;21.65;45.03
78123;BME280;67376;44.802;10.332;2024-03-23T03:18:59;100844.09;;;21.66;45.08
78123;BME280;67376;44.802;10.332;2024-03-23T03:21:25;100837.84;;;21.66;45.11
78123;BME280;67376;44.802;10.332;2024-03-23T03:23:50;100847.88;;;21.65;44.90
78123;BME280;67376;44.802;10.332;2024-03-23T03:26:16;100843.50;;;21.64;45.49
78123;BME280;67376;44.802;10.332;2024-03-23T03:28:43;100842.94;;;21.62;45.30
78123;BME280;67376;44.802;10.332;2024-03-23T03:31:09;100843.75;;;21.63;45.01
78123;BME280;67376;44.802;10.332;2024-03-23T03:33:35;100839.38;;;21.62;45.07
78123;BME280;67376;44.802;10.332;2024-03-23T03:36:00;100824.72;;;21.63;45.21
78123;BME280;67376;44.802;10.332;2024-03-23T03:38:25;100823.09;;;21.62;44.85
78123;BME280;67376;44.802;10.332;2024-03-23T03:40:51;100814.09;;;21.61;44.85
78123;BME280;67376;44.802;10.332;2024-03-23T03:43:17;100819.78;;;21.60;44.66
78123;BME280;67376;44.802;10.332;2024-03-23T03:45:51;100818.13;;;21.59;44.77
78123;BME280;67376;44.802;10.332;2024-03-23T03:48:16;100821.69;;;21.59;44.76
78123;BME280;67376;44.802;10.332;2024-03-23T03:50:42;100809.97;;;21.59;44.46
78123;BME280;67376;44.802;10.332;2024-03-23T03:53:07;100802.91;;;21.58;44.21
78123;BME280;67376;44.802;10.332;2024-03-23T03:55:32;100804.56;;;21.59;44.64
78123;BME280;67376;44.802;10.332;2024-03-23T03:57:58;100802.06;;;21.57;44.53
78123;BME280;67376;44.802;10.332;2024-03-23T04:00:24;100806.69;;;21.57;44.08
78123;BME280;67376;44.802;10.332;2024-03-23T04:02:49;100808.56;;;21.56;44.49
78123;BME280;67376;44.802;10.332;2024-03-23T04:05:14;100802.31;;;21.56;44.16
78123;BME280;67376;44.802;10.332;2024-03-23T04:07:40;100804.22;;;21.55;44.16
78123;BME280;67376;44.802;10.332;2024-03-23T04:10:05;100791.69;;;21.54;43.90
78123;BME280;67376;44.802;10.332;2024-03-23T04:12:33;100781.88;;;21.53;44.15
78123;BME280;67376;44.802;10.332;2024-03-23T04:14:58;100790.88;;;21.54;44.18
78123;BME280;67376;44.802;10.332;2024-03-23T04:17:23;100790.88;;;21.54;44.35
78123;BME280;67376;44.802;10.332;2024-03-23T04:19:50;100793.56;;;21.54;43.85
78123;BME280;67376;44.802;10.332;2024-03-23T04:22:17;100786.50;;;21.53;43.83
78123;BME280;67376;44.802;10.332;2024-03-23T04:24:43;100792.75;;;21.53;44.05
78123;BME280;67376;44.802;10.332;2024-03-23T04:27:08;100792.75;;;21.53;43.62
78123;BME280;67376;44.802;10.332;2024-03-23T04:29:33;100784.84;;;21.52;43.93
78123;BME280;67376;44.802;10.332;2024-03-23T04:31:59;100784.03;;;21.51;43.98
78123;BME280;67376;44.802;10.332;2024-03-23T04:34:24;100781.06;;;21.53;43.64
78123;BME280;67376;44.802;10.332;2024-03-23T04:36:50;100778.59;;;21.51;43.69
78123;BME280;67376;44.802;10.332;2024-03-23T04:39:15;100783.19;;;21.51;43.40
78123;BME280;67376;44.802;10.332;2024-03-23T04:41:40;100775.88;;;21.51;43.77
78123;BME280;67376;44.802;10.332;2024-03-23T04:44:06;100774.22;;;21.50;43.51
78123;BME280;67376;44.802;10.332;2024-03-23T04:46:31;100776.13;;;21.50;43.83
78123;BME280;67376;44.802;10.332;2024-03-23T04:48:57;100772.56;;;21.49;43.43
78123;BME280;67376;44.802;10.332;2024-03-23T04:51:23;100770.69;;;21.50;43.60
78123;BME280;67376;44.802;10.332;2024-03-23T04:53:48;100776.13;;;21.50;43.63
78123;BME280;67376;44.802;10.332;2024-03-23T04:56:15;100766.31;;;21.49;43.63
78123;BME280;67376;44.802;10.332;2024-03-23T04:58:41;100769.84;;;21.49;43.78
78123;BME280;67376;44.802;10.332;2024-03-23T05:01:06;100770.91;;;21.48;43.41
78123;BME280;67376;44.802;10.332;2024-03-23T05:03:31;100772.81;;;21.48;43.38
78123;BME280;67376;44.802;10.332;2024-03-23T05:05:57;100770.09;;;21.48;43.53
78123;BME280;67376;44.802;10.332;2024-03-23T05:08:23;100772.81;;;21.48;43.39
78123;BME280;67376;44.802;10.332;2024-03-23T05:10:49;100771.16;;;21.47;43.33
78123;BME280;67376;44.802;10.332;2024-03-23T05:13:14;100772.00;;;21.47;42.82
78123;BME280;67376;44.802;10.332;2024-03-23T05:15:39;100778.25;;;21.48;43.05
78123;BME280;67376;44.802;10.332;2024-03-23T05:18:05;100774.69;;;21.47;42.92
78123;BME280;67376;44.802;10.332;2024-03-23T05:20:31;100761.38;;;21.46;42.93
78123;BME280;67376;44.802;10.332;2024-03-23T05:22:56;100762.44;;;21.45;43.17
78123;BME280;67376;44.802;10.332;2024-03-23T05:25:22;100763.25;;;21.45;43.05
78123;BME280;67376;44.802;10.332;2024-03-23T05:27:48;100764.09;;;21.46;43.03
78123;BME280;67376;44.802;10.332;2024-03-23T05:30:13;100757.81;;;21.45;42.72
78123;BME280;67376;44.802;10.332;2024-03-23T05:32:39;100760.53;;;21.45;43.17
78123;BME280;67376;44.802;10.332;2024-03-23T05:35:06;100763.25;;;21.45;42.84
78123;BME280;67376;44.802;10.332;2024-03-23T05:37:32;100762.44;;;21.45;42.93
78123;BME280;67376;44.802;10.332;2024-03-23T05:39:59;100765.97;;;21.45;42.93
78123;BME280;67376;44.802;10.332;2024-03-23T05:42:25;100759.72;;;21.45;42.57
78123;BME280;67376;44.802;10.332;2024-03-23T05:44:50;100753.47;;;21.44;42.65
78123;BME280;67376;44.802;10.332;2024-03-23T05:47:15;100762.44;;;21.45;42.84
78123;BME280;67376;44.802;10.332;2024-03-23T05:49:42;100755.09;;;21.45;42.55
78123;BME280;67376;44.802;10.332;2024-03-23T05:52:10;100761.38;;;21.46;42.79
78123;BME280;67376;44.802;10.332;2024-03-23T05:54:36;100760.53;;;21.45;42.01
78123;BME280;67376;44.802;10.332;2024-03-23T05:57:02;100755.09;;;21.45;42.19
78123;BME280;67376;44.802;10.332;2024-03-23T05:59:28;100754.03;;;21.46;42.59
78123;BME280;67376;44.802;10.332;2024-03-23T06:01:53;100753.22;;;21.46;42.34
78123;BME280;67376;44.802;10.332;2024-03-23T06:04:18;100745.88;;;21.46;42.39
78123;BME280;67376;44.802;10.332;2024-03-23T06:06:44;100749.44;;;21.47;42.32
78123;BME280;67376;44.802;10.332;2024-03-23T06:09:09;100741.28;;;21.47;42.12
78123;BME280;67376;44.802;10.332;2024-03-23T06:11:35;100731.50;;;21.46;42.20
78123;BME280;67376;44.802;10.332;2024-03-23T06:14:00;100726.06;;;21.46;42.17
78123;BME280;67376;44.802;10.332;2024-03-23T06:16:25;100733.13;;;21.47;42.24
78123;BME280;67376;44.802;10.332;2024-03-23T06:18:52;100723.09;;;21.47;42.29
78123;BME280;67376;44.802;10.332;2024-03-23T06:21:18;100732.06;;;21.48;42.33
78123;BME280;67376;44.802;10.332;2024-03-23T06:23:44;100724.75;;;21.48;42.15
78123;BME280;67376;44.802;10.332;2024-03-23T06:26:19;100718.47;;;21.48;42.41
78123;BME280;67376;44.802;10.332;2024-03-23T06:28:46;100706.78;;;21.47;41.80
78123;BME280;67376;44.802;10.332;2024-03-23T06:31:12;100708.69;;;21.47;41.93
78123;BME280;67376;44.802;10.332;2024-03-23T06:33:38;100712.22;;;21.47;41.83
78123;BME280;67376;44.802;10.332;2024-03-23T06:36:05;100711.16;;;21.48;41.39
78123;BME280;67376;44.802;10.332;2024-03-23T06:38:31;100707.88;;;21.46;41.65
78123;BME280;67376;44.802;10.332;2024-03-23T06:40:56;100717.66;;;21.47;42.05
78123;BME280;67376;44.802;10.332;2024-03-23T06:43:21;100709.28;;;21.49;41.73
78123;BME280;67376;44.802;10.332;2024-03-23T06:45:54;100704.06;;;21.47;41.93
78123;BME280;67376;44.802;10.332;2024-03-23T06:48:20;100708.44;;;21.48;42.02
78123;BME280;67376;44.802;10.332;2024-03-23T06:50:46;100706.56;;;21.49;41.80
78123;BME280;67376;44.802;10.332;2024-03-23T06:53:12;100701.94;;;21.49;41.73
78123;BME280;67376;44.802;10.332;2024-03-23T06:55:37;100700.28;;;21.48;41.82
78123;BME280;67376;44.802;10.332;2024-03-23T06:58:03;100695.69;;;21.49;41.70
78123;BME280;67376;44.802;10.332;2024-03-23T07:00:29;100692.88;;;21.43;38.94
78123;BME280;67376;44.802;10.332;2024-03-23T07:02:54;100691.66;;;21.34;38.14
78123;BME280;67376;44.802;10.332;2024-03-23T07:05:20;100690.72;;;21.29;38.90
78123;BME280;67376;44.802;10.332;2024-03-23T07:07:45;100690.16;;;21.27;40.21
78123;BME280;67376;44.802;10.332;2024-03-23T07:10:10;100680.44;;;21.31;40.83
78123;BME280;67376;44.802;10.332;2024-03-23T07:12:36;100683.50;;;21.34;41.38
78123;BME280;67376;44.802;10.332;2024-03-23T07:15:02;100668.63;;;21.37;41.08
78123;BME280;67376;44.802;10.332;2024-03-23T07:17:27;100666.19;;;21.40;41.09
78123;BME280;67376;44.802;10.332;2024-03-23T07:19:53;100677.88;;;21.41;41.32
78123;BME280;67376;44.802;10.332;2024-03-23T07:22:18;100668.44;;;21.43;40.75
78123;BME280;67376;44.802;10.332;2024-03-23T07:24:44;100656.75;;;21.43;40.71
78123;BME280;67376;44.802;10.332;2024-03-23T07:27:09;100654.59;;;21.45;40.92
78123;BME280;67376;44.802;10.332;2024-03-23T07:29:35;100667.13;;;21.46;40.80
78123;BME280;67376;44.802;10.332;2024-03-23T07:32:01;100668.78;;;21.47;40.84
78123;BME280;67376;44.802;10.332;2024-03-23T07:34:26;100665.81;;;21.49;40.72
78123;BME280;67376;44.802;10.332;2024-03-23T07:36:52;100663.09;;;21.49;40.75
78123;BME280;67376;44.802;10.332;2024-03-23T07:39:17;100667.44;;;21.50;40.58
78123;BME280;67376;44.802;10.332;2024-03-23T07:41:46;100660.72;;;21.52;40.80
78123;BME280;67376;44.802;10.332;2024-03-23T07:44:11;100663.44;;;21.52;40.55
78123;BME280;67376;44.802;10.332;2024-03-23T07:46:37;100669.69;;;21.53;40.58
78123;BME280;67376;44.802;10.332;2024-03-23T07:49:04;100665.06;;;21.53;40.38
78123;BME280;67376;44.802;10.332;2024-03-23T07:51:29;100665.91;;;21.54;40.14
78123;BME280;67376;44.802;10.332;2024-03-23T07:53:55;100653.97;;;21.55;41.00
78123;BME280;67376;44.802;10.332;2024-03-23T07:56:20;100651.25;;;21.55;40.67
78123;BME280;67376;44.802;10.332;2024-03-23T07:58:47;100644.97;;;21.54;40.52
78123;BME280;67376;44.802;10.332;2024-03-23T08:01:14;100640.38;;;21.55;40.49
78123;BME280;67376;44.802;10.332;2024-03-23T08:03:42;100634.13;;;21.54;40.58
78123;BME280;67376;44.802;10.332;2024-03-23T08:06:12;100624.91;;;21.55;40.54
78123;BME280;67376;44.802;10.332;2024-03-23T08:08:39;100617.00;;;21.54;40.31
78123;BME280;67376;44.802;10.332;2024-03-23T08:11:05;100615.94;;;21.55;39.79
78123;BME280;67376;44.802;10.332;2024-03-23T08:13:30;100603.16;;;21.55;40.13
78123;BME280;67376;44.802;10.332;2024-03-23T08:16:00;100607.53;;;21.56;39.94
78123;BME280;67376;44.802;10.332;2024-03-23T08:18:26;100613.78;;;21.57;40.10
78123;BME280;67376;44.802;10.332;2024-03-23T08:21:07;100605.63;;;21.57;39.94
78123;BME280;67376;44.802;10.332;2024-03-23T08:23:34;100606.72;;;21.56;39.84
78123;BME280;67376;44.802;10.332;2024-03-23T08:26:02;100608.34;;;21.57;39.81
78123;BME280;67376;44.802;10.332;2024-03-23T08:28:28;100601.28;;;21.56;39.99
78123;BME280;67376;44.802;10.332;2024-03-23T08:30:54;100610.81;;;21.58;39.54
78123;BME280;67376;44.802;10.332;2024-03-23T08:33:20;100614.38;;;21.59;39.39
78123;BME280;67376;44.802;10.332;2024-03-23T08:36:14;100618.16;;;21.58;39.13
78123;BME280;67376;44.802;10.332;2024-03-23T08:38:39;100608.34;;;21.57;39.64
78123;BME280;67376;44.802;10.332;2024-03-23T08:41:07;100614.84;;;21.56;39.67
78123;BME280;67376;44.802;10.332;2024-03-23T08:43:35;100604.00;;;21.56;39.52
78123;BME280;67376;44.802;10.332;2024-03-23T08:46:19;100599.38;;;21.56;39.67
78123;BME280;67376;44.802;10.332;2024-03-23T08:48:45;100608.94;;;21.59;39.26
78123;BME280;67376;44.802;10.332;2024-03-23T08:51:13;100598.88;;;21.59;39.15
78123;BME280;67376;44.802;10.332;2024-03-23T08:53:39;100589.91;;;21.59;39.31
78123;BME280;67376;44.802;10.332;2024-03-23T08:56:05;100587.78;;;21.61;39.20
78123;BME280;67376;44.802;10.332;2024-03-23T08:58:32;100587.78;;;21.61;39.46
78123;BME280;67376;44.802;10.332;2024-03-23T09:01:09;100586.69;;;21.62;39.35
78123;BME280;67376;44.802;10.332;2024-03-23T09:03:35;100577.72;;;21.61;39.47
78123;BME280;67376;44.802;10.332;2024-03-23T09:06:06;100592.13;;;21.62;39.68
78123;BME280;67376;44.802;10.332;2024-03-23T09:08:32;100585.63;;;21.63;39.29
78123;BME280;67376;44.802;10.332;2024-03-23T09:10:57;100586.47;;;21.63;39.93
78123;BME280;67376;44.802;10.332;2024-03-23T09:13:28;100596.25;;;21.64;39.81
78123;BME280;67376;44.802;10.332;2024-03-23T09:15:53;100602.50;;;21.65;40.04
78123;BME280;67376;44.802;10.332;2024-03-23T09:18:21;100599.78;;;21.65;40.43
78123;BME280;67376;44.802;10.332;2024-03-23T09:20:47;100606.88;;;21.66;40.67
78123;BME280;67376;44.802;10.332;2024-03-23T09:23:12;100607.69;;;21.66;40.78
78123;BME280;67376;44.802;10.332;2024-03-23T09:25:38;100606.88;;;21.66;40.63
78123;BME280;67376;44.802;10.332;2024-03-23T09:28:05;100612.06;;;21.67;40.40
78123;BME280;67376;44.802;10.332;2024-03-23T09:30:32;100606.63;;;21.67;41.13
78123;BME280;67376;44.802;10.332;2024-03-23T09:32:57;100597.41;;;21.68;41.09
78123;BME280;67376;44.802;10.332;2024-03-23T09:35:22;100602.59;;;21.70;41.62
78123;BME280;67376;44.802;10.332;2024-03-23T09:37:48;100606.13;;;21.70;41.69
78123;BME280;67376;44.802;10.332;2024-03-23T09:40:13;100596.09;;;21.71;41.77
78123;BME280;67376;44.802;10.332;2024-03-23T09:42:39;100593.38;;;21.71;41.76
78123;BME280;67376;44.802;10.332;2024-03-23T09:45:06;100597.72;;;21.72;41.91
78123;BME280;67376;44.802;10.332;2024-03-23T09:47:35;100584.97;;;21.72;41.61
78123;BME280;67376;44.802;10.332;2024-03-23T09:50:00;100584.97;;;21.72;41.78
78123;BME280;67376;44.802;10.332;2024-03-23T09:52:26;100572.19;;;21.73;41.74
78123;BME280;67376;44.802;10.332;2024-03-23T09:54:51;100572.78;;;21.75;41.88
78123;BME280;67376;44.802;10.332;2024-03-23T09:57:16;100573.03;;;21.73;41.98
78123;BME280;67376;44.802;10.332;2024-03-23T09:59:42;100570.81;;;21.70;41.74
78123;BME280;67376;44.802;10.332;2024-03-23T10:02:08;100571.31;;;21.67;42.00
78123;BME280;67376;44.802;10.332;2024-03-23T10:04:41;100555.81;;;21.68;41.88
78123;BME280;67376;44.802;10.332;2024-03-23T10:07:14;100552.28;;;21.67;41.92
78123;BME280;67376;44.802;10.332;2024-03-23T10:09:40;100549.31;;;21.69;42.14
78123;BME280;67376;44.802;10.332;2024-03-23T10:12:12;100550.97;;;21.70;42.33
78123;BME280;67376;44.802;10.332;2024-03-23T10:14:39;100537.38;;;21.70;41.91
78123;BME280;67376;44.802;10.332;2024-03-23T10:17:21;100531.69;;;21.71;42.39
78123;BME280;67376;44.802;10.332;2024-03-23T10:19:50;100524.38;;;21.72;42.37
78123;BME280;67376;44.802;10.332;2024-03-23T10:22:20;100522.47;;;21.72;42.04
78123;BME280;67376;44.802;10.332;2024-03-23T10:24:46;100515.13;;;21.73;42.56
78123;BME280;67376;44.802;10.332;2024-03-23T10:27:21;100515.38;;;21.71;42.25
78123;BME280;67376;44.802;10.332;2024-03-23T10:29:47;100503.44;;;21.72;42.42
78123;BME280;67376;44.802;10.332;2024-03-23T10:32:14;100491.50;;;21.73;42.12
78123;BME280;67376;44.802;10.332;2024-03-23T10:34:40;100493.41;;;21.73;41.85
78123;BME280;67376;44.802;10.332;2024-03-23T10:37:07;100496.94;;;21.73;42.21
78123;BME280;67376;44.802;10.332;2024-03-23T10:39:37;100495.28;;;21.72;41.94
78123;BME280;67376;44.802;10.332;2024-03-23T10:42:03;100485.00;;;21.74;42.08
78123;BME280;67376;44.802;10.332;2024-03-23T10:44:30;100480.63;;;21.73;41.60
78123;BME280;67376;44.802;10.332;2024-03-23T10:46:57;100474.38;;;21.73;41.57
78123;BME280;67376;44.802;10.332;2024-03-23T10:49:31;100463.50;;;21.73;41.60
78123;BME280;67376;44.802;10.332;2024-03-23T10:51:59;100459.97;;;21.72;41.46
78123;BME280;67376;44.802;10.332;2024-03-23T10:54:25;100466.47;;;21.71;41.35
78123;BME280;67376;44.802;10.332;2024-03-23T10:57:09;100470.00;;;21.72;41.30
78123;BME280;67376;44.802;10.332;2024-03-23T10:59:37;100472.16;;;21.70;41.78
78123;BME280;67376;44.802;10.332;2024-03-23T11:02:03;100473.81;;;21.71;41.18
78123;BME280;67376;44.802;10.332;2024-03-23T11:04:33;100464.84;;;21.70;41.73
78123;BME280;67376;44.802;10.332;2024-03-23T11:06:59;100458.31;;;21.71;41.07
78123;BME280;67376;44.802;10.332;2024-03-23T11:14:47;100432.78;;;21.72;41.45
78123;BME280;67376;44.802;10.332;2024-03-23T11:17:18;100433.63;;;21.73;41.26
78123;BME280;67376;44.802;10.332;2024-03-23T11:19:43;100433.06;;;21.71;39.92
78123;BME280;67376;44.802;10.332;2024-03-23T11:22:09;100430.59;;;21.69;39.38
78123;BME280;67376;44.802;10.332;2024-03-23T11:24:34;100423.75;;;21.67;38.85
78123;BME280;67376;44.802;10.332;2024-03-23T11:27:00;100419.31;;;21.61;38.46
78123;BME280;67376;44.802;10.332;2024-03-23T11:29:29;100402.13;;;21.55;37.76
78123;BME280;67376;44.802;10.332;2024-03-23T11:31:55;100392.03;;;21.51;38.11
78123;BME280;67376;44.802;10.332;2024-03-23T11:34:21;100394.44;;;21.47;37.75
78123;BME280;67376;44.802;10.332;2024-03-23T11:36:47;100384.31;;;21.42;37.82
78123;BME280;67376;44.802;10.332;2024-03-23T11:39:18;100394.03;;;21.38;38.55
78123;BME280;67376;44.802;10.332;2024-03-23T11:41:51;100368.22;;;21.36;38.62
78123;BME280;67376;44.802;10.332;2024-03-23T11:44:21;100355.47;;;21.36;39.07
78123;BME280;67376;44.802;10.332;2024-03-23T11:46:50;100348.94;;;21.37;39.10
78123;BME280;67376;44.802;10.332;2024-03-23T11:49:27;100346.53;;;21.41;39.44
78123;BME280;67376;44.802;10.332;2024-03-23T11:51:56;100350.91;;;21.42;39.59
78123;BME280;67376;44.802;10.332;2024-03-23T11:54:23;100335.19;;;21.44;39.23
78123;BME280;67376;44.802;10.332;2024-03-23T11:59:35;100316.47;;;21.48;39.50
78123;BME280;67376;44.802;10.332;2024-03-23T12:02:11;100315.41;;;21.49;39.79
78123;BME280;67376;44.802;10.332;2024-03-23T12:04:39;100303.47;;;21.50;39.49
78123;BME280;67376;44.802;10.332;2024-03-23T12:07:15;100287.16;;;21.50;39.65
78123;BME280;67376;44.802;10.332;2024-03-23T12:09:41;100285.28;;;21.50;39.57
78123;BME280;67376;44.802;10.332;2024-03-23T12:12:19;100287.16;;;21.50;39.61
78123;BME280;67376;44.802;10.332;2024-03-23T12:14:45;100289.63;;;21.51;39.92
78123;BME280;67376;44.802;10.332;2024-03-23T12:19:36;100279.31;;;21.53;40.02
78123;BME280;67376;44.802;10.332;2024-03-23T12:22:05;100280.41;;;21.52;40.05
78123;BME280;67376;44.802;10.332;2024-03-23T12:24:32;100263.84;;;21.54;40.21
78123;BME280;67376;44.802;10.332;2024-03-23T12:27:02;100250.28;;;21.54;39.91
78123;BME280;67376;44.802;10.332;2024-03-23T12:29:29;100257.59;;;21.53;40.44
78123;BME280;67376;44.802;10.332;2024-03-23T12:31:54;100252.16;;;21.53;40.03
78123;BME280;67376;44.802;10.332;2024-03-23T12:34:21;100254.88;;;21.53;40.42
78123;BME280;67376;44.802;10.332;2024-03-23T12:36:46;100246.47;;;21.55;40.52
78123;BME280;67376;44.802;10.332;2024-03-23T12:39:11;100228.53;;;21.54;40.41
78123;BME280;67376;44.802;10.332;2024-03-23T12:41:37;100225.56;;;21.55;40.23
78123;BME280;67376;44.802;10.332;2024-03-23T12:44:02;100223.69;;;21.56;40.22
78123;BME280;67376;44.802;10.332;2024-03-23T12:46:27;100220.97;;;21.56;40.62
78123;BME280;67376;44.802;10.332;2024-03-23T12:48:52;100202.19;;;21.54;40.55
78123;BME280;67376;44.802;10.332;2024-03-23T12:51:18;100201.13;;;21.55;40.58
78123;BME280;67376;44.802;10.332;2024-03-23T12:53:43;100199.22;;;21.56;40.75
78123;BME280;67376;44.802;10.332;2024-03-23T12:56:12;100194.59;;;21.56;40.17
78123;BME280;67376;44.802;10.332;2024-03-23T12:58:37;100170.97;;;21.57;40.66
78123;BME280;67376;44.802;10.332;2024-03-23T13:01:02;100176.69;;;21.55;40.15
78123;BME280;67376;44.802;10.332;2024-03-23T13:03:28;100171.25;;;21.55;40.82
78123;BME280;67376;44.802;10.332;2024-03-23T13:05:53;100163.91;;;21.56;40.84
78123;BME280;67376;44.802;10.332;2024-03-23T13:08:19;100151.16;;;21.56;40.49
78123;BME280;67376;44.802;10.332;2024-03-23T13:10:44;100144.91;;;21.56;40.84
78123;BME280;67376;44.802;10.332;2024-03-23T13:13:10;100153.03;;;21.56;40.39
78123;BME280;67376;44.802;10.332;2024-03-23T13:15:35;100141.38;;;21.55;40.70
78123;BME280;67376;44.802;10.332;2024-03-23T13:18:00;100146.53;;;21.57;40.49
78123;BME280;67376;44.802;10.332;2024-03-23T13:20:26;100150.63;;;21.59;40.58
78123;BME280;67376;44.802;10.332;2024-03-23T13:22:51;100151.19;;;21.61;41.03
78123;BME280;67376;44.802;10.332;2024-03-23T13:25:17;100147.66;;;21.61;40.58
78123;BME280;67376;44.802;10.332;2024-03-23T13:27:44;100129.72;;;21.60;40.97
78123;BME280;67376;44.802;10.332;2024-03-23T13:30:10;100127.00;;;21.60;41.02
78123;BME280;67376;44.802;10.332;2024-03-23T13:32:36;100127.81;;;21.60;40.69
78123;BME280;67376;44.802;10.332;2024-03-23T13:35:01;100116.69;;;21.62;40.82
78123;BME280;67376;44.802;10.332;2024-03-23T13:37:26;100125.94;;;21.61;41.14
78123;BME280;67376;44.802;10.332;2024-03-23T13:39:52;100121.31;;;21.61;40.99
78123;BME280;67376;44.802;10.332;2024-03-23T13:42:17;100113.41;;;21.60;40.76